sensor_id;sensor_type;location;lat;lon;timestamp;pressure;altitude;pressure_sealevel;temperature;humidity
55317;BME280;41178;48.956;8.130;2022-11-15T00:04:57;99596.97;;;9.29;59.67
55317;BME280;41178;48.956;8.130;2022-11-15T00:09:58;99586.09;;;9.98;58.03
55317;BME280;41178;48.956;8.130;2022-11-15T00:15:00;99596.22;;;9.88;57.94
55317;BME280;41178;48.956;8.130;2022-11-15T00:20:02;99592.72;;;10.02;57.90
55317;BME280;41178;48.956;8.130;2022-11-15T00:25:05;99590.38;;;9.54;58.91
55317;BME280;41178;48.956;8.130;2022-11-15T00:30:07;99592.44;;;9.29;60.32
55317;BME280;41178;48.956;8.130;2022-11-15T00:35:08;99566.47;;;9.23;59.74
55317;BME280;41178;48.956;8.130;2022-11-15T00:40:11;99559.50;;;8.99;60.59
55317;BME280;41178;48.956;8.130;2022-11-15T00:45:16;99548.69;;;9.83;59.07
55317;BME280;41178;48.956;8.130;2022-11-15T00:50:18;99546.06;;;10.20;58.14
55317;BME280;41178;48.956;8.130;2022-11-15T00:55:20;99550.94;;;10.31;57.23
55317;BME280;41178;48.956;8.130;2022-11-15T01:00:23;99560.53;;;9.81;58.19
55317;BME280;41178;48.956;8.130;2022-11-15T01:05:24;99559.06;;;9.63;59.38
55317;BME280;41178;48.956;8.130;2022-11-15T01:10:26;99544.06;;;9.92;58.62
55317;BME280;41178;48.956;8.130;2022-11-15T01:15:28;99546.91;;;9.61;58.79
55317;BME280;41178;48.956;8.130;2022-11-15T01:20:29;99538.44;;;10.02;58.22
55317;BME280;41178;48.956;8.130;2022-11-15T01:25:31;99547.84;;;9.98;57.83
55317;BME280;41178;48.956;8.130;2022-11-15T01:30:33;99562.44;;;9.27;59.85
55317;BME280;41178;48.956;8.130;2022-11-15T01:35:38;99550.59;;;10.99;55.82
55317;BME280;41178;48.956;8.130;2022-11-15T01:40:40;99554.13;;;11.28;54.91
55317;BME280;41178;48.956;8.130;2022-11-15T01:45:42;99542.69;;;11.12;54.70
55317;BME280;41178;48.956;8.130;2022-11-15T01:50:45;99555.22;;;11.12;55.07
55317;BME280;41178;48.956;8.130;2022-11-15T01:55:47;99559.53;;;11.34;55.17
55317;BME280;41178;48.956;8.130;2022-11-15T02:00:49;99554.31;;;11.26;54.90
55317;BME280;41178;48.956;8.130;2022-11-15T02:05:51;99564.78;;;12.26;52.64
55317;BME280;41178;48.956;8.130;2022-11-15T02:10:54;99551.25;;;10.64;56.37
55317;BME280;41178;48.956;8.130;2022-11-15T02:16:10;99523.56;;;11.22;54.69
55317;BME280;41178;48.956;8.130;2022-11-15T02:21:23;99543.75;;;11.74;54.11
55317;BME280;41178;48.956;8.130;2022-11-15T02:26:56;99531.97;;;11.12;54.91
55317;BME280;41178;48.956;8.130;2022-11-15T02:37:39;99543.47;;;12.11;52.67
55317;BME280;41178;48.956;8.130;2022-11-15T02:43:00;99537.69;;;12.07;52.46
55317;BME280;41178;48.956;8.130;2022-11-15T02:48:24;99518.38;;;11.14;54.19
55317;BME280;41178;48.956;8.130;2022-11-15T02:53:27;99525.41;;;10.50;55.90
55317;BME280;41178;48.956;8.130;2022-11-15T03:04:16;99511.44;;;9.52;58.90
55317;BME280;41178;48.956;8.130;2022-11-15T03:14:35;99464.13;;;11.05;55.91
55317;BME280;41178;48.956;8.130;2022-11-15T03:19:45;99458.47;;;10.93;55.97
55317;BME280;41178;48.956;8.130;2022-11-15T03:24:52;99485.38;;;9.39;58.80
55317;BME280;41178;48.956;8.130;2022-11-15T03:29:59;99450.06;;;10.96;55.87
55317;BME280;41178;48.956;8.130;2022-11-15T03:35:11;99468.91;;;10.60;56.25
55317;BME280;41178;48.956;8.130;2022-11-15T03:40:15;99463.81;;;10.43;56.75
55317;BME280;41178;48.956;8.130;2022-11-15T03:45:22;99458.03;;;10.03;57.37
55317;BME280;41178;48.956;8.130;2022-11-15T03:50:25;99450.00;;;10.89;56.01
55317;BME280;41178;48.956;8.130;2022-11-15T03:55:28;99466.84;;;9.22;59.89
55317;BME280;41178;48.956;8.130;2022-11-15T04:00:29;99425.50;;;10.64;56.77
55317;BME280;41178;48.956;8.130;2022-11-15T04:05:31;99439.00;;;11.06;55.44
55317;BME280;41178;48.956;8.130;2022-11-15T04:10:33;99445.22;;;10.57;56.80
55317;BME280;41178;48.956;8.130;2022-11-15T04:15:35;99447.06;;;10.35;57.27
55317;BME280;41178;48.956;8.130;2022-11-15T04:20:37;99447.13;;;11.19;55.48
55317;BME280;41178;48.956;8.130;2022-11-15T04:26:01;99444.84;;;11.16;55.99
55317;BME280;41178;48.956;8.130;2022-11-15T04:31:03;99455.41;;;9.73;58.55
55317;BME280;41178;48.956;8.130;2022-11-15T04:36:05;99433.13;;;10.18;57.04
55317;BME280;41178;48.956;8.130;2022-11-15T04:41:26;99425.16;;;11.31;55.23
55317;BME280;41178;48.956;8.130;2022-11-15T04:46:27;99458.06;;;10.25;56.99
55317;BME280;41178;48.956;8.130;2022-11-15T04:51:29;99421.19;;;10.42;57.72
55317;BME280;41178;48.956;8.130;2022-11-15T04:56:31;99422.22;;;11.19;55.58
55317;BME280;41178;48.956;8.130;2022-11-15T05:01:32;99427.50;;;10.77;56.27
55317;BME280;41178;48.956;8.130;2022-11-15T05:06:34;99416.31;;;10.95;55.38
55317;BME280;41178;48.956;8.130;2022-11-15T05:11:36;99427.66;;;11.32;55.29
55317;BME280;41178;48.956;8.130;2022-11-15T05:16:38;99418.13;;;10.95;55.29
55317;BME280;41178;48.956;8.130;2022-11-15T05:21:40;99414.81;;;11.21;55.80
55317;BME280;41178;48.956;8.130;2022-11-15T05:26:41;99421.19;;;10.92;56.07
55317;BME280;41178;48.956;8.130;2022-11-15T05:31:43;99423.19;;;10.83;55.74
55317;BME280;41178;48.956;8.130;2022-11-15T05:36:45;99446.13;;;9.54;59.60
55317;BME280;41178;48.956;8.130;2022-11-15T05:41:53;99408.91;;;11.32;55.44
55317;BME280;41178;48.956;8.130;2022-11-15T05:46:56;99424.91;;;10.19;57.77
55317;BME280;41178;48.956;8.130;2022-11-15T05:51:59;99424.59;;;9.26;59.37
55317;BME280;41178;48.956;8.130;2022-11-15T05:57:01;99386.44;;;9.99;58.90
55317;BME280;41178;48.956;8.130;2022-11-15T06:02:03;99404.91;;;9.12;60.79
55317;BME280;41178;48.956;8.130;2022-11-15T06:07:05;99385.13;;;9.21;60.23
55317;BME280;41178;48.956;8.130;2022-11-15T06:12:06;99387.53;;;8.78;60.59
55317;BME280;41178;48.956;8.130;2022-11-15T06:17:08;99379.97;;;9.05;60.56
55317;BME280;41178;48.956;8.130;2022-11-15T06:22:11;99344.31;;;9.64;59.11
55317;BME280;41178;48.956;8.130;2022-11-15T06:27:13;99345.09;;;9.43;59.73
55317;BME280;41178;48.956;8.130;2022-11-15T06:32:15;99345.69;;;9.96;58.22
55317;BME280;41178;48.956;8.130;2022-11-15T06:37:16;99344.66;;;10.97;55.83
55317;BME280;41178;48.956;8.130;2022-11-15T06:42:18;99372.03;;;12.03;53.27
55317;BME280;41178;48.956;8.130;2022-11-15T06:47:20;99387.91;;;10.01;57.29
55317;BME280;41178;48.956;8.130;2022-11-15T06:52:21;99379.66;;;10.18;56.71
55317;BME280;41178;48.956;8.130;2022-11-15T06:57:23;99384.66;;;9.84;57.51
55317;BME280;41178;48.956;8.130;2022-11-15T07:02:25;99397.59;;;9.36;59.68
55317;BME280;41178;48.956;8.130;2022-11-15T07:07:27;99380.44;;;8.71;60.67
55317;BME280;41178;48.956;8.130;2022-11-15T07:12:28;99386.72;;;8.78;61.44
55317;BME280;41178;48.956;8.130;2022-11-15T07:17:30;99331.72;;;10.16;58.23
55317;BME280;41178;48.956;8.130;2022-11-15T07:22:31;99358.34;;;10.59;56.10
55317;BME280;41178;48.956;8.130;2022-11-15T07:27:33;99362.78;;;10.74;56.49
55317;BME280;41178;48.956;8.130;2022-11-15T07:32:35;99371.09;;;11.14;55.15
55317;BME280;41178;48.956;8.130;2022-11-15T07:37:37;99412.00;;;9.20;59.67
55317;BME280;41178;48.956;8.130;2022-11-15T07:42:38;99372.78;;;10.58;56.68
55317;BME280;41178;48.956;8.130;2022-11-15T07:47:55;99386.59;;;11.67;54.85
55317;BME280;41178;48.956;8.130;2022-11-15T07:52:59;99385.34;;;11.69;54.52
55317;BME280;41178;48.956;8.130;2022-11-15T07:58:09;99408.09;;;11.87;53.80
55317;BME280;41178;48.956;8.130;2022-11-15T08:03:13;99398.97;;;11.81;53.99
55317;BME280;41178;48.956;8.130;2022-11-15T08:08:15;99413.41;;;10.47;56.66
55317;BME280;41178;48.956;8.130;2022-11-15T08:13:16;99403.69;;;10.89;56.77
55317;BME280;41178;48.956;8.130;2022-11-15T08:18:18;99382.00;;;11.12;56.17
55317;BME280;41178;48.956;8.130;2022-11-15T08:23:20;99397.00;;;11.48;55.97
55317;BME280;41178;48.956;8.130;2022-11-15T08:28:22;99395.34;;;11.47;55.47
55317;BME280;41178;48.956;8.130;2022-11-15T08:33:24;99378.69;;;10.54;58.33
55317;BME280;41178;48.956;8.130;2022-11-15T08:38:27;99372.63;;;10.66;57.41
55317;BME280;41178;48.956;8.130;2022-11-15T08:43:30;99375.72;;;11.40;56.74
55317;BME280;41178;48.956;8.130;2022-11-15T08:48:32;99390.72;;;11.76;55.58
55317;BME280;41178;48.956;8.130;2022-11-15T08:53:34;99393.16;;;11.64;56.14
55317;BME280;41178;48.956;8.130;2022-11-15T08:58:36;99391.44;;;12.05;55.05
55317;BME280;41178;48.956;8.130;2022-11-15T09:03:39;99399.22;;;10.46;58.51
55317;BME280;41178;48.956;8.130;2022-11-15T09:08:41;99373.31;;;12.53;54.16
55317;BME280;41178;48.956;8.130;2022-11-15T09:13:57;99372.28;;;12.74;54.12
55317;BME280;41178;48.956;8.130;2022-11-15T09:18:58;99357.00;;;12.48;54.00
55317;BME280;41178;48.956;8.130;2022-11-15T09:24:00;99366.09;;;12.61;54.30
55317;BME280;41178;48.956;8.130;2022-11-15T09:29:02;99361.44;;;11.68;56.48
55317;BME280;41178;48.956;8.130;2022-11-15T09:34:04;99358.00;;;11.94;56.86
55317;BME280;41178;48.956;8.130;2022-11-15T09:39:05;99340.84;;;12.88;54.21
55317;BME280;41178;48.956;8.130;2022-11-15T09:44:27;99357.09;;;11.67;57.52
55317;BME280;41178;48.956;8.130;2022-11-15T09:49:31;99326.13;;;11.51;58.13
55317;BME280;41178;48.956;8.130;2022-11-15T09:54:35;99335.16;;;13.23;54.57
55317;BME280;41178;48.956;8.130;2022-11-15T10:04:58;99311.38;;;12.42;55.44
55317;BME280;41178;48.956;8.130;2022-11-15T10:10:08;99317.78;;;12.27;56.37
55317;BME280;41178;48.956;8.130;2022-11-15T10:15:15;99318.56;;;12.81;55.78
55317;BME280;41178;48.956;8.130;2022-11-15T10:20:18;99314.69;;;11.97;57.59
55317;BME280;41178;48.956;8.130;2022-11-15T10:25:26;99315.09;;;12.61;56.01
55317;BME280;41178;48.956;8.130;2022-11-15T10:30:48;99299.00;;;11.94;57.38
55317;BME280;41178;48.956;8.130;2022-11-15T10:41:11;99293.91;;;11.31;59.11
55317;BME280;41178;48.956;8.130;2022-11-15T10:46:22;99243.31;;;12.09;57.41
55317;BME280;41178;48.956;8.130;2022-11-15T10:56:57;99214.66;;;11.63;59.35
55317;BME280;41178;48.956;8.130;2022-11-15T11:06:15;99155.44;;;10.63;63.18
55317;BME280;41178;48.956;8.130;2022-11-15T11:11:17;99184.84;;;9.65;64.18
55317;BME280;41178;48.956;8.130;2022-11-15T11:17:02;99157.25;;;10.07;64.21
55317;BME280;41178;48.956;8.130;2022-11-15T11:33:05;99129.44;;;10.37;63.68
55317;BME280;41178;48.956;8.130;2022-11-15T11:43:48;99098.59;;;11.22;62.01
55317;BME280;41178;48.956;8.130;2022-11-15T11:54:14;99105.78;;;11.02;61.41
55317;BME280;41178;48.956;8.130;2022-11-15T12:04:32;99129.41;;;12.25;59.12
55317;BME280;41178;48.956;8.130;2022-11-15T12:09:43;99103.47;;;11.92;59.49
55317;BME280;41178;48.956;8.130;2022-11-15T12:15:11;99119.19;;;12.61;58.66
55317;BME280;41178;48.956;8.130;2022-11-15T12:25:30;99074.91;;;11.66;61.37
55317;BME280;41178;48.956;8.130;2022-11-15T12:30:47;99072.31;;;12.05;60.59
55317;BME280;41178;48.956;8.130;2022-11-15T12:35:59;99072.84;;;12.33;59.27
55317;BME280;41178;48.956;8.130;2022-11-15T12:41:14;99064.19;;;12.25;58.79
55317;BME280;41178;48.956;8.130;2022-11-15T12:56:44;99018.16;;;12.28;59.06
55317;BME280;41178;48.956;8.130;2022-11-15T13:06:49;99044.84;;;14.24;55.33
55317;BME280;41178;48.956;8.130;2022-11-15T13:11:52;99009.03;;;13.68;56.11
55317;BME280;41178;48.956;8.130;2022-11-15T13:17:01;98994.09;;;13.54;55.61
55317;BME280;41178;48.956;8.130;2022-11-15T13:22:10;98995.88;;;13.78;55.03
55317;BME280;41178;48.956;8.130;2022-11-15T13:27:31;99004.50;;;13.87;54.75
55317;BME280;41178;48.956;8.130;2022-11-15T13:32:32;98982.75;;;14.80;53.33
55317;BME280;41178;48.956;8.130;2022-11-15T13:37:34;98968.28;;;14.20;54.84
55317;BME280;41178;48.956;8.130;2022-11-15T13:42:36;98954.97;;;14.25;54.98
55317;BME280;41178;48.956;8.130;2022-11-15T13:47:51;98948.19;;;13.37;57.40
55317;BME280;41178;48.956;8.130;2022-11-15T13:52:57;98925.56;;;14.66;55.16
55317;BME280;41178;48.956;8.130;2022-11-15T13:58:02;98916.16;;;14.33;55.61
55317;BME280;41178;48.956;8.130;2022-11-15T14:03:21;98885.97;;;14.00;55.88
55317;BME280;41178;48.956;8.130;2022-11-15T14:08:24;98893.66;;;14.27;55.59
55317;BME280;41178;48.956;8.130;2022-11-15T14:13:30;98886.13;;;14.71;54.28
55317;BME280;41178;48.956;8.130;2022-11-15T14:23:45;98866.25;;;14.07;55.21
55317;BME280;41178;48.956;8.130;2022-11-15T14:28:47;98854.13;;;13.37;56.62
55317;BME280;41178;48.956;8.130;2022-11-15T14:33:48;98853.81;;;13.26;57.31
55317;BME280;41178;48.956;8.130;2022-11-15T14:38:50;98845.81;;;13.87;56.62
55317;BME280;41178;48.956;8.130;2022-11-15T14:43:52;98840.63;;;13.06;57.80
55317;BME280;41178;48.956;8.130;2022-11-15T14:48:54;98809.59;;;13.29;57.29
55317;BME280;41178;48.956;8.130;2022-11-15T14:53:56;98807.84;;;13.53;56.71
55317;BME280;41178;48.956;8.130;2022-11-15T14:58:58;98810.28;;;13.97;55.45
55317;BME280;41178;48.956;8.130;2022-11-15T15:03:59;98817.25;;;12.88;57.47
55317;BME280;41178;48.956;8.130;2022-11-15T15:09:01;98790.03;;;13.03;56.78
55317;BME280;41178;48.956;8.130;2022-11-15T15:14:03;98796.91;;;14.20;55.08
55317;BME280;41178;48.956;8.130;2022-11-15T15:19:05;98792.13;;;13.01;56.97
55317;BME280;41178;48.956;8.130;2022-11-15T15:24:13;98784.09;;;13.50;57.09
55317;BME280;41178;48.956;8.130;2022-11-15T15:29:15;98746.22;;;13.40;55.98
55317;BME280;41178;48.956;8.130;2022-11-15T15:34:16;98762.19;;;14.19;54.89
55317;BME280;41178;48.956;8.130;2022-11-15T15:39:18;98768.50;;;12.73;57.07
55317;BME280;41178;48.956;8.130;2022-11-15T15:44:20;98771.25;;;12.41;58.09
55317;BME280;41178;48.956;8.130;2022-11-15T15:49:21;98768.63;;;12.34;59.24
55317;BME280;41178;48.956;8.130;2022-11-15T15:54:23;98729.22;;;13.70;56.35
55317;BME280;41178;48.956;8.130;2022-11-15T15:59:24;98724.00;;;13.98;55.15
55317;BME280;41178;48.956;8.130;2022-11-15T16:04:26;98786.66;;;12.27;59.14
55317;BME280;41178;48.956;8.130;2022-11-15T16:09:29;98762.13;;;11.73;60.30
55317;BME280;41178;48.956;8.130;2022-11-15T16:15:09;98715.19;;;12.33;59.07
55317;BME280;41178;48.956;8.130;2022-11-15T16:20:43;98728.22;;;11.86;60.82
55317;BME280;41178;48.956;8.130;2022-11-15T16:30:47;98718.03;;;11.69;61.06
55317;BME280;41178;48.956;8.130;2022-11-15T16:35:56;98710.69;;;11.58;61.19
55317;BME280;41178;48.956;8.130;2022-11-15T16:40:58;98659.47;;;12.16;58.46
55317;BME280;41178;48.956;8.130;2022-11-15T16:46:06;98659.38;;;12.05;59.48
55317;BME280;41178;48.956;8.130;2022-11-15T16:51:14;98682.69;;;11.79;60.44
55317;BME280;41178;48.956;8.130;2022-11-15T17:01:32;98672.16;;;11.52;61.39
55317;BME280;41178;48.956;8.130;2022-11-15T17:06:35;98672.16;;;11.52;61.01
55317;BME280;41178;48.956;8.130;2022-11-15T17:11:41;98689.81;;;10.96;62.75
55317;BME280;41178;48.956;8.130;2022-11-15T17:16:44;98690.91;;;10.88;62.95
55317;BME280;41178;48.956;8.130;2022-11-15T17:21:46;98684.19;;;10.59;63.10
55317;BME280;41178;48.956;8.130;2022-11-15T17:26:50;98683.41;;;11.04;62.77
55317;BME280;41178;48.956;8.130;2022-11-15T17:31:51;98666.38;;;11.23;62.42
55317;BME280;41178;48.956;8.130;2022-11-15T17:37:05;98636.81;;;11.12;61.65
55317;BME280;41178;48.956;8.130;2022-11-15T17:48:02;98638.94;;;11.60;60.99
55317;BME280;41178;48.956;8.130;2022-11-15T17:54:00;98625.06;;;12.50;57.76
55317;BME280;41178;48.956;8.130;2022-11-15T17:59:08;98654.41;;;12.82;57.79
55317;BME280;41178;48.956;8.130;2022-11-15T18:10:48;98681.47;;;12.44;58.82
55317;BME280;41178;48.956;8.130;2022-11-15T18:16:25;98667.88;;;12.02;59.12
55317;BME280;41178;48.956;8.130;2022-11-15T18:21:52;98649.00;;;13.43;56.35
55317;BME280;41178;48.956;8.130;2022-11-15T18:27:34;98666.59;;;14.04;55.10
55317;BME280;41178;48.956;8.130;2022-11-15T18:33:00;98667.34;;;12.85;56.98
55317;BME280;41178;48.956;8.130;2022-11-15T18:38:52;98695.41;;;11.65;59.68
55317;BME280;41178;48.956;8.130;2022-11-15T18:44:42;98693.28;;;11.35;60.71
55317;BME280;41178;48.956;8.130;2022-11-15T18:50:08;98631.31;;;12.07;59.06
55317;BME280;41178;48.956;8.130;2022-11-15T18:55:34;98612.31;;;12.64;57.74
55317;BME280;41178;48.956;8.130;2022-11-15T19:01:29;98624.28;;;12.43;56.98
55317;BME280;41178;48.956;8.130;2022-11-15T19:06:58;98625.88;;;12.32;58.44
55317;BME280;41178;48.956;8.130;2022-11-15T19:12:04;98620.31;;;13.79;55.23
55317;BME280;41178;48.956;8.130;2022-11-15T19:17:05;98611.84;;;13.28;55.77
55317;BME280;41178;48.956;8.130;2022-11-15T19:22:07;98631.38;;;14.30;53.94
55317;BME280;41178;48.956;8.130;2022-11-15T19:27:08;98610.22;;;13.39;54.91
55317;BME280;41178;48.956;8.130;2022-11-15T19:32:10;98660.63;;;12.02;57.96
55317;BME280;41178;48.956;8.130;2022-11-15T19:37:12;98661.94;;;11.74;59.23
55317;BME280;41178;48.956;8.130;2022-11-15T19:42:13;98631.19;;;12.58;58.36
55317;BME280;41178;48.956;8.130;2022-11-15T19:47:15;98617.22;;;14.75;52.91
55317;BME280;41178;48.956;8.130;2022-11-15T19:52:16;98613.28;;;14.54;53.21
55317;BME280;41178;48.956;8.130;2022-11-15T19:57:20;98607.88;;;14.25;53.47
55317;BME280;41178;48.956;8.130;2022-11-15T20:02:22;98608.69;;;14.37;52.72
55317;BME280;41178;48.956;8.130;2022-11-15T20:07:24;98628.69;;;14.82;51.83
55317;BME280;41178;48.956;8.130;2022-11-15T20:12:25;98617.88;;;14.53;52.72
55317;BME280;41178;48.956;8.130;2022-11-15T20:17:27;98615.25;;;13.59;53.96
55317;BME280;41178;48.956;8.130;2022-11-15T20:22:29;98610.25;;;14.50;52.58
55317;BME280;41178;48.956;8.130;2022-11-15T20:27:30;98608.41;;;14.39;52.69
55317;BME280;41178;48.956;8.130;2022-11-15T20:32:32;98598.91;;;14.08;53.73
55317;BME280;41178;48.956;8.130;2022-11-15T20:37:34;98586.47;;;14.18;53.48
55317;BME280;41178;48.956;8.130;2022-11-15T20:42:35;98647.84;;;11.79;57.97
55317;BME280;41178;48.956;8.130;2022-11-15T20:47:37;98565.97;;;13.53;55.60
55317;BME280;41178;48.956;8.130;2022-11-15T20:52:39;98558.00;;;13.35;55.04
55317;BME280;41178;48.956;8.130;2022-11-15T20:57:40;98548.88;;;13.47;54.68
55317;BME280;41178;48.956;8.130;2022-11-15T21:02:42;98602.69;;;12.38;57.48
55317;BME280;41178;48.956;8.130;2022-11-15T21:07:44;98543.66;;;14.05;53.88
55317;BME280;41178;48.956;8.130;2022-11-15T21:12:45;98561.44;;;14.30;53.35
55317;BME280;41178;48.956;8.130;2022-11-15T21:17:48;98583.19;;;13.22;55.64
55317;BME280;41178;48.956;8.130;2022-11-15T21:22:49;98529.38;;;13.52;54.94
55317;BME280;41178;48.956;8.130;2022-11-15T21:27:51;98554.28;;;12.93;56.31
55317;BME280;41178;48.956;8.130;2022-11-15T21:32:53;98544.09;;;14.66;52.25
55317;BME280;41178;48.956;8.130;2022-11-15T21:37:55;98600.63;;;11.85;58.32
55317;BME280;41178;48.956;8.130;2022-11-15T21:42:57;98559.09;;;13.03;56.38
55317;BME280;41178;48.956;8.130;2022-11-15T21:47:59;98596.34;;;11.52;60.41
55317;BME280;41178;48.956;8.130;2022-11-15T21:53:00;98527.00;;;13.08;56.46
55317;BME280;41178;48.956;8.130;2022-11-15T21:58:02;98502.56;;;13.93;54.44
55317;BME280;41178;48.956;8.130;2022-11-15T22:03:04;98535.75;;;13.27;55.40
55317;BME280;41178;48.956;8.130;2022-11-15T22:08:06;98563.81;;;12.47;57.69
55317;BME280;41178;48.956;8.130;2022-11-15T22:13:07;98514.06;;;12.45;57.45
55317;BME280;41178;48.956;8.130;2022-11-15T22:18:09;98466.75;;;13.16;55.90
55317;BME280;41178;48.956;8.130;2022-11-15T22:23:11;98520.44;;;12.32;58.50
55317;BME280;41178;48.956;8.130;2022-11-15T22:28:12;98508.91;;;12.13;59.95
55317;BME280;41178;48.956;8.130;2022-11-15T22:33:18;98517.66;;;11.71;59.63
55317;BME280;41178;48.956;8.130;2022-11-15T22:38:21;98529.72;;;11.12;61.74
55317;BME280;41178;48.956;8.130;2022-11-15T22:43:24;98496.97;;;11.35;60.66
55317;BME280;41178;48.956;8.130;2022-11-15T22:48:32;98497.31;;;11.20;61.18
55317;BME280;41178;48.956;8.130;2022-11-15T22:53:35;98490.22;;;11.32;61.91
55317;BME280;41178;48.956;8.130;2022-11-15T22:58:38;98476.81;;;11.32;61.62
55317;BME280;41178;48.956;8.130;2022-11-15T23:03:40;98474.16;;;11.32;61.39
55317;BME280;41178;48.956;8.130;2022-11-15T23:08:42;98480.78;;;11.04;61.80
55317;BME280;41178;48.956;8.130;2022-11-15T23:13:43;98422.25;;;12.00;60.31
55317;BME280;41178;48.956;8.130;2022-11-15T23:18:45;98460.75;;;11.32;61.46
55317;BME280;41178;48.956;8.130;2022-11-15T23:23:47;98409.78;;;11.76;60.28
55317;BME280;41178;48.956;8.130;2022-11-15T23:28:48;98476.94;;;11.19;61.60
55317;BME280;41178;48.956;8.130;2022-11-15T23:33:50;98433.66;;;11.77;60.43
55317;BME280;41178;48.956;8.130;2022-11-15T23:38:58;98421.78;;;12.76;57.77
55317;BME280;41178;48.956;8.130;2022-11-15T23:44:00;98487.25;;;11.59;60.19
55317;BME280;41178;48.956;8.130;2022-11-15T23:49:02;98417.31;;;12.70;57.96
55317;BME280;41178;48.956;8.130;2022-11-15T23:54:04;98408.56;;;12.51;58.49
55317;BME280;41178;48.956;8.130;2022-11-15T23:59:06;98456.63;;;12.22;59.05
